Time;durP1;ratioP1;P1;durP2;ratioP2;P2;SDS_P1;SDS_P2;PMS_P1;PMS_P2;Temp;Humidity;BMP_temperature;BMP_pressure;BME280_temperature;BME280_humidity;BME280_pressure;Samples;Min_cycle;Max_cycle;Signal;HPM_P1;HPM_P2
2023/03/02 00:02:05;;;;;;;25.43;8.57;;;;;;;;;;10440391;28;20040;-77
2023/03/02 00:07:20;;;;;;;20.67;7.63;;;;;;;;;;10433979;28;20045;-75
2023/03/02 00:12:26;;;;;;;23.60;8.23;;;;;;;;;;10440687;28;20051;-77
2023/03/02 00:17:29;;;;;;;15.33;5.23;;;;;;;;;;10434344;28;20044;-77
2023/03/02 00:22:32;;;;;;;20.83;7.03;;;;;;;;;;10437620;28;20483;-76
2023/03/02 00:27:36;;;;;;;26.90;7.53;;;;;;;;;;10435346;28;20033;-76
2023/03/02 00:32:39;;;;;;;16.23;6.10;;;;;;;;;;10435160;28;20041;-77
2023/03/02 00:37:42;;;;;;;19.67;7.10;;;;;;;;;;10435532;28;20048;-76
2023/03/02 00:42:46;;;;;;;24.77;8.33;;;;;;;;;;10434811;28;20053;-77
2023/03/02 00:47:49;;;;;;;25.05;8.75;;;;;;;;;;10434567;28;20478;-78
2023/03/02 00:52:52;;;;;;;27.67;9.70;;;;;;;;;;10451729;28;20045;-76
2023/03/02 00:57:56;;;;;;;30.63;10.27;;;;;;;;;;10439141;28;20041;-78
2023/03/02 01:03:06;;;;;;;29.93;8.60;;;;;;;;;;10439321;28;20049;-77
2023/03/02 01:08:09;;;;;;;35.67;10.73;;;;;;;;;;10448299;28;20037;-77
2023/03/02 01:13:13;;;;;;;26.30;7.63;;;;;;;;;;10442453;28;20044;-75
2023/03/02 01:18:16;;;;;;;24.70;9.13;;;;;;;;;;10438460;28;20032;-78
2023/03/02 01:23:19;;;;;;;30.13;8.00;;;;;;;;;;10438067;28;20052;-78
2023/03/02 01:28:24;;;;;;;33.63;9.93;;;;;;;;;;10437387;28;20052;-78
2023/03/02 01:33:28;;;;;;;27.67;9.23;;;;;;;;;;10432008;28;20455;-77
2023/03/02 01:38:30;;;;;;;25.13;8.27;;;;;;;;;;10437099;28;20095;-77
2023/03/02 01:43:35;;;;;;;26.23;10.17;;;;;;;;;;10433848;28;20112;-78
2023/03/02 01:48:44;;;;;;;29.37;9.50;;;;;;;;;;10451143;28;20235;-80
2023/03/02 01:53:49;;;;;;;25.37;9.30;;;;;;;;;;10453404;28;20037;-78
2023/03/02 01:58:56;;;;;;;25.10;9.23;;;;;;;;;;10444069;28;20119;-78
2023/03/02 02:04:08;;;;;;;24.87;8.80;;;;;;;;;;10448958;28;20402;-77
2023/03/02 02:09:13;;;;;;;23.47;8.50;;;;;;;;;;10441295;28;20454;-77
2023/03/02 02:14:17;;;;;;;21.93;7.43;;;;;;;;;;10439137;28;20481;-78
2023/03/02 02:19:26;;;;;;;23.50;9.20;;;;;;;;;;10433275;28;20037;-76
2023/03/02 02:24:33;;;;;;;22.40;8.23;;;;;;;;;;10451906;28;20056;-75
2023/03/02 02:29:38;;;;;;;23.00;8.57;;;;;;;;;;10444803;28;20074;-77
2023/03/02 02:34:42;;;;;;;29.07;8.83;;;;;;;;;;10452181;28;20040;-77
2023/03/02 02:39:46;;;;;;;27.40;9.57;;;;;;;;;;10447846;28;20228;-79
2023/03/02 02:44:51;;;;;;;20.42;7.07;;;;;;;;;;10433419;28;20111;-78
2023/03/02 02:49:55;;;;;;;28.27;8.47;;;;;;;;;;10438089;28;20112;-77
2023/03/02 02:54:59;;;;;;;24.47;8.77;;;;;;;;;;10440329;28;20040;-77
2023/03/02 03:00:05;;;;;;;23.57;8.27;;;;;;;;;;10441085;28;20037;-77
2023/03/02 03:05:13;;;;;;;19.80;7.17;;;;;;;;;;10439782;28;20037;-78
2023/03/02 03:10:18;;;;;;;23.23;8.00;;;;;;;;;;10440777;28;20084;-77
2023/03/02 03:15:23;;;;;;;27.57;9.30;;;;;;;;;;10438181;28;20049;-77
2023/03/02 03:20:27;;;;;;;24.88;8.88;;;;;;;;;;10443269;28;20049;-77
2023/03/02 03:25:30;;;;;;;;;;;;;;;;;;10434151;28;20145;-78
2023/03/02 03:30:35;;;;;;;29.70;9.00;;;;;;;;;;10437746;28;20351;-78
2023/03/02 03:35:39;;;;;;;26.83;9.67;;;;;;;;;;10445322;28;20067;-78
2023/03/02 03:40:41;;;;;;;25.53;9.13;;;;;;;;;;10438179;28;20065;-78
2023/03/02 03:45:46;;;;;;;20.13;7.95;;;;;;;;;;10438369;28;20054;-80
2023/03/02 03:50:50;;;;;;;35.30;9.63;;;;;;;;;;10438504;28;20068;-77
2023/03/02 03:55:52;;;;;;;25.87;9.43;;;;;;;;;;10437331;28;20048;-77
2023/03/02 04:00:57;;;;;;;30.17;10.23;;;;;;;;;;10437221;28;20064;-77
2023/03/02 04:06:00;;;;;;;27.13;8.67;;;;;;;;;;10434722;28;20090;-76
2023/03/02 04:11:03;;;;;;;27.37;9.47;;;;;;;;;;10433224;28;20190;-76
2023/03/02 04:16:08;;;;;;;23.83;7.57;;;;;;;;;;10439646;28;20529;-75
2023/03/02 04:21:10;;;;;;;29.40;9.10;;;;;;;;;;10438494;28;20156;-75
2023/03/02 04:26:14;;;;;;;26.30;9.00;;;;;;;;;;10451809;28;20195;-76
2023/03/02 04:31:23;;;;;;;30.30;10.13;;;;;;;;;;10446125;28;20050;-76
2023/03/02 04:36:26;;;;;;;28.50;9.55;;;;;;;;;;10445848;28;20033;-76
2023/03/02 04:41:29;;;;;;;29.27;9.50;;;;;;;;;;10445781;28;20052;-76
2023/03/02 04:46:33;;;;;;;26.23;9.00;;;;;;;;;;10440835;28;20049;-77
2023/03/02 04:51:38;;;;;;;24.37;8.43;;;;;;;;;;10457975;28;20041;-77
2023/03/02 04:56:40;;;;;;;30.30;10.13;;;;;;;;;;10447557;28;20041;-76
2023/03/02 05:01:44;;;;;;;24.43;8.93;;;;;;;;;;10446597;28;20071;-78
2023/03/02 05:06:47;;;;;;;;;;;;;;;;;;10450345;28;20041;-76
2023/03/02 05:11:49;;;;;;;23.50;8.23;;;;;;;;;;10457048;28;19927;-76
2023/03/02 05:16:54;;;;;;;23.98;9.15;;;;;;;;;;10443964;28;20037;-77
2023/03/02 05:21:57;;;;;;;18.45;7.88;;;;;;;;;;10451005;28;20049;-75
2023/03/02 05:26:59;;;;;;;19.20;6.90;;;;;;;;;;10440731;28;20037;-76
2023/03/02 05:32:05;;;;;;;12.23;4.85;;;;;;;;;;10443186;28;20044;-78
2023/03/02 05:37:08;;;;;;;24.70;8.17;;;;;;;;;;10439193;28;20035;-76
2023/03/02 05:42:11;;;;;;;16.07;7.07;;;;;;;;;;10442596;28;20056;-75
2023/03/02 05:47:15;;;;;;;28.93;9.57;;;;;;;;;;10443951;28;20043;-77
2023/03/02 05:52:19;;;;;;;24.20;8.63;;;;;;;;;;10449747;28;20316;-76
2023/03/02 05:57:22;;;;;;;27.00;10.17;;;;;;;;;;10446389;28;20124;-76
2023/03/02 06:02:27;;;;;;;14.25;5.95;;;;;;;;;;10434321;28;20045;-76
2023/03/02 06:07:30;;;;;;;26.80;8.60;;;;;;;;;;10438214;28;20048;-75
2023/03/02 06:12:33;;;;;;;20.27;8.17;;;;;;;;;;10442048;28;20041;-76
2023/03/02 06:17:37;;;;;;;36.13;10.77;;;;;;;;;;10450829;28;20131;-75
2023/03/02 06:22:43;;;;;;;29.77;9.63;;;;;;;;;;10427413;28;20127;-78
2023/03/02 06:27:50;;;;;;;27.90;9.20;;;;;;;;;;10440679;28;20136;-76
2023/03/02 06:33:07;;;;;;;27.03;9.47;;;;;;;;;;10448364;28;20044;-76
2023/03/02 06:38:20;;;;;;;26.30;9.82;;;;;;;;;;10429782;28;20044;-79
2023/03/02 06:43:23;;;;;;;12.00;5.25;;;;;;;;;;10444846;28;20037;-77
2023/03/02 06:48:28;;;;;;;26.10;9.43;;;;;;;;;;10439857;28;20128;-78
2023/03/02 06:53:31;;;;;;;;;;;;;;;;;;10438088;28;20746;-78
2023/03/02 06:58:35;;;;;;;34.17;12.27;;;;;;;;;;10431347;28;20334;-76
2023/03/02 07:03:41;;;;;;;33.00;12.30;;;;;;;;;;10429452;28;20470;-76
2023/03/02 07:08:44;;;;;;;28.67;12.27;;;;;;;;;;10429833;28;20557;-77
2023/03/02 07:13:47;;;;;;;29.08;11.52;;;;;;;;;;10433966;28;20044;-77
2023/03/02 07:18:51;;;;;;;29.15;12.88;;;;;;;;;;10425720;28;20115;-78
2023/03/02 07:23:54;;;;;;;30.83;12.73;;;;;;;;;;10435356;28;20040;-77
2023/03/02 07:28:58;;;;;;;26.37;13.00;;;;;;;;;;10435838;28;20135;-78
2023/03/02 07:34:00;;;;;;;;;;;;;;;;;;10429509;28;20052;-78
2023/03/02 07:39:05;;;;;;;26.93;12.90;;;;;;;;;;10435295;28;19920;-79
2023/03/02 07:44:08;;;;;;;33.10;14.02;;;;;;;;;;10430132;28;20041;-79
2023/03/02 07:49:18;;;;;;;26.15;13.05;;;;;;;;;;10432364;28;20518;-78
2023/03/02 07:54:25;;;;;;;26.23;13.20;;;;;;;;;;10437360;28;20048;-79
2023/03/02 07:59:28;;;;;;;26.08;14.63;;;;;;;;;;10423766;28;20087;-79
2023/03/02 08:04:31;;;;;;;23.65;13.88;;;;;;;;;;10429777;28;20045;-79
2023/03/02 08:09:37;;;;;;;26.17;13.52;;;;;;;;;;10435466;28;20506;-79
2023/03/02 08:14:40;;;;;;;26.23;14.40;;;;;;;;;;10432696;28;20049;-78
2023/03/02 08:19:43;;;;;;;25.27;14.82;;;;;;;;;;10429525;28;20029;-78
2023/03/02 08:24:48;;;;;;;27.35;15.13;;;;;;;;;;10439278;28;20120;-78
2023/03/02 08:29:53;;;;;;;25.08;14.27;;;;;;;;;;10427177;28;20047;-79
2023/03/02 08:34:55;;;;;;;23.88;14.10;;;;;;;;;;10434361;28;20099;-78
2023/03/02 08:39:58;;;;;;;;;;;;;;;;;;10423545;28;20041;-79
2023/03/02 08:45:05;;;;;;;20.13;10.98;;;;;;;;;;10430079;28;20012;-81
2023/03/02 08:50:09;;;;;;;20.75;12.05;;;;;;;;;;10430579;28;20454;-79
2023/03/02 08:55:21;;;;;;;26.27;13.20;;;;;;;;;;10434194;28;20041;-79
2023/03/02 09:00:26;;;;;;;22.90;13.88;;;;;;;;;;10429568;28;20045;-79
2023/03/02 09:05:35;;;;;;;24.42;13.45;;;;;;;;;;10431707;28;20064;-80
2023/03/02 09:10:39;;;;;;;21.33;12.85;;;;;;;;;;10430217;28;20340;-80
2023/03/02 09:15:45;;;;;;;25.23;14.63;;;;;;;;;;10453137;28;20041;-79
2023/03/02 09:20:49;;;;;;;20.67;13.98;;;;;;;;;;10450849;28;20509;-78
2023/03/02 09:25:53;;;;;;;22.00;14.18;;;;;;;;;;10436211;28;20130;-80
2023/03/02 09:30:59;;;;;;;24.92;15.85;;;;;;;;;;10439708;28;20073;-78
2023/03/02 09:36:07;;;;;;;20.20;12.57;;;;;;;;;;10449728;28;20090;-80
2023/03/02 09:41:32;;;;;;;20.95;12.63;;;;;;;;;;10435026;28;20466;-80
2023/03/02 09:46:43;;;;;;;20.23;13.90;;;;;;;;;;10424279;28;20068;-80
2023/03/02 09:52:02;;;;;;;20.80;14.52;;;;;;;;;;10448928;28;20044;-80
2023/03/02 09:57:20;;;;;;;19.27;14.02;;;;;;;;;;10446476;28;20040;-81
2023/03/02 10:02:36;;;;;;;21.83;14.10;;;;;;;;;;10436089;28;20143;-80
2023/03/02 10:07:38;;;;;;;23.10;14.20;;;;;;;;;;10437523;28;20045;-80
2023/03/02 10:12:48;;;;;;;20.27;13.77;;;;;;;;;;10441001;28;20180;-79
2023/03/02 10:17:57;;;;;;;23.48;14.32;;;;;;;;;;10436100;28;20574;-80
2023/03/02 10:23:03;;;;;;;21.70;13.60;;;;;;;;;;10431607;28;20072;-81
2023/03/02 10:28:11;;;;;;;20.30;13.98;;;;;;;;;;10446684;28;20044;-79
2023/03/02 10:33:15;;;;;;;22.00;13.65;;;;;;;;;;10433256;28;20041;-79
2023/03/02 10:38:19;;;;;;;22.02;13.98;;;;;;;;;;10428228;28;20540;-80
2023/03/02 10:43:28;;;;;;;19.15;14.13;;;;;;;;;;10439368;28;20052;-80
2023/03/02 10:48:32;;;;;;;22.23;14.25;;;;;;;;;;10421129;28;20044;-82
2023/03/02 10:53:34;;;;;;;22.75;13.32;;;;;;;;;;10431823;28;20037;-82
2023/03/02 10:58:37;;;;;;;20.73;13.65;;;;;;;;;;10436938;28;20092;-83
2023/03/02 11:03:41;;;;;;;22.38;13.35;;;;;;;;;;10435240;28;20040;-83
2023/03/02 11:08:44;;;;;;;20.45;12.73;;;;;;;;;;10434146;28;20041;-81
2023/03/02 11:13:46;;;;;;;20.65;13.68;;;;;;;;;;10438193;28;20037;-83
2023/03/02 11:19:03;;;;;;;22.30;12.90;;;;;;;;;;10442618;28;20037;-82
2023/03/02 11:24:09;;;;;;;22.42;14.40;;;;;;;;;;10428540;28;20063;-83
2023/03/02 11:29:14;;;;;;;20.13;13.80;;;;;;;;;;10430876;28;20514;-83
2023/03/02 11:34:26;;;;;;;20.38;13.27;;;;;;;;;;10442609;28;20055;-83
2023/03/02 11:39:35;;;;;;;19.17;13.07;;;;;;;;;;10431407;28;20049;-82
2023/03/02 11:44:45;;;;;;;20.23;11.50;;;;;;;;;;10439528;28;20052;-81
2023/03/02 11:49:52;;;;;;;17.88;12.25;;;;;;;;;;10434822;28;20040;-82
2023/03/02 11:54:57;;;;;;;17.17;11.85;;;;;;;;;;10430452;28;20105;-82
2023/03/02 12:00:00;;;;;;;16.80;11.25;;;;;;;;;;10436988;28;20125;-83
2023/03/02 12:05:06;;;;;;;16.95;11.02;;;;;;;;;;10427143;28;20125;-83
2023/03/02 12:10:23;;;;;;;19.75;11.00;;;;;;;;;;10434760;28;20048;-83
2023/03/02 12:15:37;;;;;;;17.52;10.95;;;;;;;;;;10423411;28;20032;-83
2023/03/02 12:20:41;;;;;;;16.05;10.63;;;;;;;;;;10424574;28;20041;-83
2023/03/02 12:25:50;;;;;;;14.13;8.93;;;;;;;;;;10436300;28;20131;-82
2023/03/02 12:30:57;;;;;;;17.35;9.90;;;;;;;;;;10425081;28;20131;-82
2023/03/02 12:36:12;;;;;;;15.55;8.40;;;;;;;;;;10431889;28;20065;-81
2023/03/02 12:41:21;;;;;;;13.48;9.38;;;;;;;;;;10424199;28;20064;-82
2023/03/02 12:46:31;;;;;;;15.82;9.00;;;;;;;;;;10421773;28;20061;-82
2023/03/02 12:51:43;;;;;;;14.10;9.02;;;;;;;;;;10446797;28;20041;-82
2023/03/02 12:56:47;;;;;;;14.52;9.40;;;;;;;;;;10432168;28;20189;-82
2023/03/02 13:01:50;;;;;;;16.13;9.13;;;;;;;;;;10426696;28;20037;-81
2023/03/02 13:07:04;;;;;;;14.63;8.55;;;;;;;;;;10439027;28;20044;-83
2023/03/02 13:12:11;;;;;;;15.05;8.90;;;;;;;;;;10438093;28;20050;-81
2023/03/02 13:17:21;;;;;;;12.75;8.35;;;;;;;;;;10440133;28;20052;-82
2023/03/02 13:22:25;;;;;;;12.50;8.45;;;;;;;;;;10444086;28;20056;-82
2023/03/02 13:27:29;;;;;;;13.55;8.65;;;;;;;;;;10440113;28;20118;-82
2023/03/02 13:32:35;;;;;;;15.77;8.40;;;;;;;;;;10431251;28;20372;-81
2023/03/02 13:37:42;;;;;;;13.07;8.02;;;;;;;;;;10437939;28;20114;-82
2023/03/02 13:42:45;;;;;;;16.85;7.85;;;;;;;;;;10429414;28;20041;-82
2023/03/02 13:47:48;;;;;;;12.82;7.70;;;;;;;;;;10442555;28;20067;-82
2023/03/02 13:52:50;;;;;;;;;;;;;;;;;;10440331;28;20380;-82
2023/03/02 13:57:55;;;;;;;13.63;7.20;;;;;;;;;;10445545;28;20404;-81
2023/03/02 14:02:58;;;;;;;14.60;7.85;;;;;;;;;;10450008;28;20133;-81
2023/03/02 14:08:01;;;;;;;12.05;7.53;;;;;;;;;;10447912;28;20041;-81
2023/03/02 14:13:08;;;;;;;18.35;7.88;;;;;;;;;;10439146;28;20428;-84
2023/03/02 14:18:22;;;;;;;15.90;7.72;;;;;;;;;;10428072;28;20486;-83
2023/03/02 14:23:26;;;;;;;16.48;8.15;;;;;;;;;;10433231;28;20083;-83
2023/03/02 14:28:34;;;;;;;11.43;6.53;;;;;;;;;;10439281;28;20237;-82
2023/03/02 14:33:37;;;;;;;13.82;6.20;;;;;;;;;;10439223;28;20040;-82
2023/03/02 14:38:39;;;;;;;15.63;8.13;;;;;;;;;;10442655;28;20124;-81
2023/03/02 14:43:43;;;;;;;19.03;8.40;;;;;;;;;;10444753;28;20036;-82
2023/03/02 14:48:46;;;;;;;12.68;6.75;;;;;;;;;;10429137;28;20065;-82
2023/03/02 14:53:49;;;;;;;;;;;;;;;;;;10426194;28;20044;-85
2023/03/02 14:58:53;;;;;;;19.73;8.65;;;;;;;;;;10426701;28;19929;-82
2023/03/02 15:03:57;;;;;;;26.90;12.43;;;;;;;;;;10427270;28;20043;-82
2023/03/02 15:09:00;;;;;;;24.42;12.00;;;;;;;;;;10429710;28;20037;-81
2023/03/02 15:14:03;;;;;;;;;;;;;;;;;;10440643;28;20402;-82
2023/03/02 15:19:08;;;;;;;15.23;7.30;;;;;;;;;;10430036;28;19963;-80
2023/03/02 15:24:11;;;;;;;31.77;12.40;;;;;;;;;;10435117;28;20123;-81
2023/03/02 15:29:20;;;;;;;27.83;11.38;;;;;;;;;;10434402;28;20049;-81
2023/03/02 15:34:24;;;;;;;31.80;13.73;;;;;;;;;;10433531;28;20053;-81
2023/03/02 15:39:29;;;;;;;30.30;10.35;;;;;;;;;;10432201;28;20056;-81
2023/03/02 15:44:33;;;;;;;24.95;10.63;;;;;;;;;;10441774;28;20080;-81
2023/03/02 15:49:44;;;;;;;30.52;12.02;;;;;;;;;;10443610;28;20122;-81
2023/03/02 15:54:48;;;;;;;36.53;13.05;;;;;;;;;;10439221;28;20044;-82
2023/03/02 15:59:55;;;;;;;34.75;12.18;;;;;;;;;;10427509;28;20081;-81
2023/03/02 16:04:59;;;;;;;34.95;13.98;;;;;;;;;;10428711;28;20045;-81
2023/03/02 16:10:02;;;;;;;25.65;10.77;;;;;;;;;;10433581;28;20115;-80
2023/03/02 16:15:07;;;;;;;36.85;13.70;;;;;;;;;;10428259;28;20048;-82
2023/03/02 16:20:10;;;;;;;;;;;;;;;;;;10438810;28;20079;-80
2023/03/02 16:25:14;;;;;;;30.60;11.68;;;;;;;;;;10437586;28;20047;-81
2023/03/02 16:30:18;;;;;;;37.95;14.38;;;;;;;;;;10433573;28;20072;-81
2023/03/02 16:35:25;;;;;;;37.40;12.68;;;;;;;;;;10435511;28;20049;-81
2023/03/02 16:40:29;;;;;;;20.63;6.80;;;;;;;;;;10445415;28;20038;-80
2023/03/02 16:45:32;;;;;;;35.47;12.35;;;;;;;;;;10436591;28;20049;-78
2023/03/02 16:50:35;;;;;;;34.35;12.40;;;;;;;;;;10447138;28;20087;-79
2023/03/02 16:55:39;;;;;;;32.40;10.93;;;;;;;;;;10444065;28;20418;-80
2023/03/02 17:00:42;;;;;;;40.90;13.82;;;;;;;;;;10439492;28;20474;-78
2023/03/02 17:05:45;;;;;;;27.05;10.00;;;;;;;;;;10441698;28;20128;-78
2023/03/02 17:10:49;;;;;;;28.67;9.15;;;;;;;;;;10439110;28;20127;-77
2023/03/02 17:15:51;;;;;;;39.40;12.65;;;;;;;;;;10439961;28;20522;-77
2023/03/02 17:20:54;;;;;;;24.73;9.25;;;;;;;;;;10435873;28;20061;-78
2023/03/02 17:25:58;;;;;;;26.30;9.20;;;;;;;;;;10438290;28;20036;-79
2023/03/02 17:31:02;;;;;;;36.03;12.15;;;;;;;;;;10434225;28;20095;-79
2023/03/02 17:36:07;;;;;;;40.45;13.15;;;;;;;;;;10443712;28;20049;-79
2023/03/02 17:41:11;;;;;;;18.10;6.80;;;;;;;;;;10450596;28;20116;-80
2023/03/02 17:46:15;;;;;;;21.73;8.23;;;;;;;;;;10432533;28;20080;-77
2023/03/02 17:51:18;;;;;;;40.53;12.98;;;;;;;;;;10441080;28;20562;-78
2023/03/02 17:56:23;;;;;;;38.47;12.77;;;;;;;;;;10434217;28;20106;-79
2023/03/02 18:01:27;;;;;;;28.38;10.10;;;;;;;;;;10429830;28;20033;-77
2023/03/02 18:06:33;;;;;;;32.90;10.27;;;;;;;;;;10426364;28;20051;-79
2023/03/02 18:11:37;;;;;;;32.22;9.18;;;;;;;;;;10441256;28;20039;-79
2023/03/02 18:16:40;;;;;;;34.40;11.30;;;;;;;;;;10435791;28;20051;-78
2023/03/02 18:21:44;;;;;;;28.30;8.05;;;;;;;;;;10440121;28;20129;-78
2023/03/02 18:26:49;;;;;;;27.48;7.80;;;;;;;;;;10433351;28;20041;-80
2023/03/02 18:31:53;;;;;;;24.00;8.57;;;;;;;;;;10442119;28;20061;-78
2023/03/02 18:36:56;;;;;;;45.53;14.53;;;;;;;;;;10439461;28;20041;-79
2023/03/02 18:42:10;;;;;;;28.50;8.82;;;;;;;;;;10438798;28;20032;-78
2023/03/02 18:47:16;;;;;;;48.38;15.70;;;;;;;;;;10438529;28;20064;-79
2023/03/02 18:52:19;;;;;;;37.63;10.55;;;;;;;;;;10432227;28;20045;-78
2023/03/02 18:57:24;;;;;;;27.90;8.52;;;;;;;;;;10441640;28;20164;-77
2023/03/02 19:02:27;;;;;;;35.97;10.55;;;;;;;;;;10426960;28;20044;-79
2023/03/02 19:07:30;;;;;;;47.97;15.30;;;;;;;;;;10432141;28;20055;-79
2023/03/02 19:12:35;;;;;;;37.80;11.90;;;;;;;;;;10439487;28;20682;-78
2023/03/02 19:17:38;;;;;;;41.67;14.10;;;;;;;;;;10449500;28;20086;-78
2023/03/02 19:22:44;;;;;;;44.70;13.70;;;;;;;;;;10454247;28;20110;-77
2023/03/02 19:27:48;;;;;;;28.10;8.43;;;;;;;;;;10450568;28;20131;-77
2023/03/02 19:32:53;;;;;;;21.67;7.97;;;;;;;;;;10438364;28;20071;-78
2023/03/02 19:37:55;;;;;;;47.80;13.47;;;;;;;;;;10440215;28;20103;-77
2023/03/02 19:42:59;;;;;;;31.37;9.57;;;;;;;;;;10445192;28;20076;-79
2023/03/02 19:48:04;;;;;;;31.00;9.43;;;;;;;;;;10444174;28;20040;-78
2023/03/02 19:53:08;;;;;;;;;;;;;;;;;;10455620;28;20049;-77
2023/03/02 19:58:16;;;;;;;32.07;9.13;;;;;;;;;;10462478;28;19920;-79
2023/03/02 20:03:19;;;;;;;39.70;11.83;;;;;;;;;;10443892;28;20082;-79
2023/03/02 20:08:22;;;;;;;41.28;10.10;;;;;;;;;;10441928;28;20057;-78
2023/03/02 20:13:32;;;;;;;12.53;4.47;;;;;;;;;;10450699;28;20041;-77
2023/03/02 20:18:35;;;;;;;;;;;;;;;;;;10447810;28;20049;-78
2023/03/02 20:23:38;;;;;;;23.03;8.00;;;;;;;;;;10452063;28;20408;-77
2023/03/02 20:28:42;;;;;;;52.50;14.53;;;;;;;;;;10447880;28;20500;-77
2023/03/02 20:33:47;;;;;;;35.77;11.33;;;;;;;;;;10446432;28;20052;-78
2023/03/02 20:38:51;;;;;;;47.65;12.65;;;;;;;;;;10447995;28;20446;-78
2023/03/02 20:44:04;;;;;;;;;;;;;;;;;;10447475;28;20040;-78
2023/03/02 20:49:10;;;;;;;42.17;12.93;;;;;;;;;;10465972;28;19931;-78
2023/03/02 20:54:17;;;;;;;43.07;12.37;;;;;;;;;;10449554;28;20072;-78
2023/03/02 20:59:20;;;;;;;25.40;8.67;;;;;;;;;;10452914;28;20410;-77
2023/03/02 21:04:24;;;;;;;44.95;14.70;;;;;;;;;;10457264;28;20047;-79
2023/03/02 21:09:27;;;;;;;25.75;9.27;;;;;;;;;;10462297;28;20185;-79
2023/03/02 21:14:32;;;;;;;34.93;9.97;;;;;;;;;;10462421;28;20601;-76
2023/03/02 21:19:36;;;;;;;47.90;14.27;;;;;;;;;;10459411;28;20333;-77
2023/03/02 21:24:38;;;;;;;28.42;7.68;;;;;;;;;;10452556;28;20055;-78
2023/03/02 21:29:41;;;;;;;49.40;14.50;;;;;;;;;;10448249;28;20029;-76
2023/03/02 21:34:45;;;;;;;32.50;11.27;;;;;;;;;;10452936;28;20506;-77
2023/03/02 21:39:49;;;;;;;39.00;11.23;;;;;;;;;;10456439;28;20055;-78
2023/03/02 21:44:52;;;;;;;47.03;14.48;;;;;;;;;;10452532;28;20119;-79
2023/03/02 21:49:56;;;;;;;38.60;11.67;;;;;;;;;;10452989;28;20083;-78
2023/03/02 21:54:59;;;;;;;35.78;9.35;;;;;;;;;;10450720;28;20041;-78
2023/03/02 22:00:04;;;;;;;37.50;11.52;;;;;;;;;;10444331;28;20080;-78
2023/03/02 22:05:09;;;;;;;46.60;13.47;;;;;;;;;;10440244;28;20510;-77
2023/03/02 22:10:22;;;;;;;30.10;9.17;;;;;;;;;;10439390;28;20061;-79
2023/03/02 22:15:28;;;;;;;41.10;11.50;;;;;;;;;;10443387;28;20045;-78
2023/03/02 22:20:32;;;;;;;19.63;7.37;;;;;;;;;;10439998;28;20071;-77
2023/03/02 22:25:34;;;;;;;34.38;10.55;;;;;;;;;;10446431;28;20056;-78
2023/03/02 22:30:37;;;;;;;24.53;7.27;;;;;;;;;;10445869;28;20037;-77
2023/03/02 22:35:41;;;;;;;27.40;8.70;;;;;;;;;;10441150;28;20037;-76
2023/03/02 22:40:44;;;;;;;21.77;7.67;;;;;;;;;;10460131;28;20132;-76
2023/03/02 22:45:47;;;;;;;45.83;15.10;;;;;;;;;;10441942;28;20472;-77
2023/03/02 22:50:51;;;;;;;48.23;12.40;;;;;;;;;;10443501;28;20044;-77
2023/03/02 22:55:54;;;;;;;;;;;;;;;;;;10439923;28;20040;-77
2023/03/02 23:00:57;;;;;;;26.73;8.47;;;;;;;;;;10440219;28;20425;-77
2023/03/02 23:06:16;;;;;;;32.00;8.27;;;;;;;;;;10446180;28;20029;-78
2023/03/02 23:11:21;;;;;;;17.43;6.33;;;;;;;;;;10444880;28;20131;-77
2023/03/02 23:16:24;;;;;;;18.35;6.25;;;;;;;;;;10444240;28;20471;-79
2023/03/02 23:21:40;;;;;;;22.90;7.97;;;;;;;;;;10444176;28;20045;-78
2023/03/02 23:26:46;;;;;;;39.37;11.30;;;;;;;;;;10434556;28;20530;-79
2023/03/02 23:31:49;;;;;;;15.97;6.83;;;;;;;;;;10439635;28;20041;-77
2023/03/02 23:36:53;;;;;;;42.80;10.23;;;;;;;;;;10444767;28;20505;-77
2023/03/02 23:41:58;;;;;;;32.30;10.37;;;;;;;;;;10440406;28;20084;-78
2023/03/02 23:47:03;;;;;;;36.87;10.87;;;;;;;;;;10455750;28;20045;-79
2023/03/02 23:52:07;;;;;;;22.65;6.70;;;;;;;;;;10438723;28;20425;-80
2023/03/02 23:57:09;;;;;;;32.45;9.90;;;;;;;;;;10443171;28;20041;-78
